createdAt,value
2018-05-15T00:00:47.505Z,15.20
2018-05-15T00:01:56.382Z,15.20
2018-05-15T00:03:05.176Z,15.10
2018-05-15T00:04:13.869Z,15.10
2018-05-15T00:05:22.530Z,15.10
2018-05-15T00:06:31.179Z,15.10
2018-05-15T00:07:39.825Z,15.10
2018-05-15T00:08:48.376Z,15.00
2018-05-15T00:09:57.045Z,15.00
2018-05-15T00:11:05.797Z,14.90
2018-05-15T00:12:14.388Z,14.90
2018-05-15T00:13:22.959Z,14.90
2018-05-15T00:14:31.723Z,14.90
2018-05-15T00:15:40.596Z,14.90
2018-05-15T00:16:49.351Z,14.90
2018-05-15T00:17:57.999Z,14.90
2018-05-15T00:19:06.728Z,14.90
2018-05-15T00:20:15.356Z,14.90
2018-05-15T00:21:24.002Z,14.90
2018-05-15T00:22:32.714Z,14.90
2018-05-15T00:23:41.389Z,14.90
2018-05-15T00:24:50.046Z,14.90
2018-05-15T00:25:58.647Z,14.90
2018-05-15T00:27:07.286Z,15.00
2018-05-15T00:28:16.909Z,15.20
2018-05-15T00:29:25.770Z,15.20
2018-05-15T00:30:35.183Z,15.20
2018-05-15T00:31:43.793Z,15.10
2018-05-15T00:32:52.454Z,15.20
2018-05-15T00:34:02.016Z,15.30
2018-05-15T00:35:10.599Z,15.30
2018-05-15T00:36:19.370Z,15.40
2018-05-15T00:37:28.112Z,15.40
2018-05-15T00:38:37.202Z,15.30
2018-05-15T00:39:45.976Z,15.30
2018-05-15T00:40:54.720Z,15.30
2018-05-15T00:42:03.377Z,15.30
2018-05-15T00:43:11.964Z,15.30
2018-05-15T00:44:20.857Z,15.30
2018-05-15T00:45:29.319Z,15.30
2018-05-15T00:46:38.006Z,15.30
2018-05-15T00:47:46.594Z,15.30
2018-05-15T00:48:55.441Z,15.20
2018-05-15T00:50:04.076Z,15.20
2018-05-15T00:51:12.638Z,15.20
2018-05-15T00:52:21.531Z,15.10
2018-05-15T00:53:30.496Z,15.00
2018-05-15T00:54:39.118Z,14.90
2018-05-15T00:55:47.785Z,14.90
2018-05-15T00:56:57.162Z,14.80
2018-05-15T00:58:05.943Z,14.80
2018-05-15T00:59:15.331Z,14.80
2018-05-15T01:00:24.119Z,14.80
2018-05-15T01:01:33.428Z,14.80
2018-05-15T01:02:42.240Z,14.80
2018-05-15T01:03:50.904Z,14.80
2018-05-15T01:05:00.207Z,14.90
2018-05-15T01:06:08.827Z,14.90
2018-05-15T01:07:17.471Z,14.80
2018-05-15T01:08:26.076Z,14.80
2018-05-15T01:09:34.728Z,14.80
2018-05-15T01:10:43.472Z,14.70
2018-05-15T01:11:52.922Z,14.70
2018-05-15T01:13:01.759Z,14.70
2018-05-15T01:14:10.431Z,14.70
2018-05-15T01:15:19.083Z,14.70
2018-05-15T01:16:27.899Z,14.60
2018-05-15T01:17:37.176Z,14.60
2018-05-15T01:18:45.993Z,14.50
2018-05-15T01:19:54.634Z,14.60
2018-05-15T01:21:03.278Z,14.60
2018-05-15T01:22:11.907Z,14.50
2018-05-15T01:23:20.652Z,14.50
2018-05-15T01:24:29.442Z,14.50
2018-05-15T01:25:38.070Z,14.50
2018-05-15T01:26:47.443Z,14.50
2018-05-15T01:27:56.610Z,14.50
2018-05-15T01:29:05.399Z,14.50
2018-05-15T01:30:14.001Z,14.50
2018-05-15T01:31:22.779Z,14.40
2018-05-15T01:32:31.482Z,14.40
2018-05-15T01:33:40.142Z,14.40
2018-05-15T01:34:48.814Z,14.40
2018-05-15T01:35:57.418Z,14.40
2018-05-15T01:37:06.004Z,14.40
2018-05-15T01:38:14.616Z,14.40
2018-05-15T01:39:23.397Z,14.40
2018-05-15T01:40:31.960Z,14.40
2018-05-15T01:41:40.578Z,14.30
2018-05-15T01:42:49.178Z,14.40
2018-05-15T01:43:57.829Z,14.30
2018-05-15T01:45:06.509Z,14.30
2018-05-15T01:46:15.104Z,14.40
2018-05-15T01:47:23.866Z,14.40
2018-05-15T01:48:32.510Z,14.50
2018-05-15T01:49:41.128Z,14.40
2018-05-15T01:50:49.880Z,14.40
2018-05-15T01:51:58.567Z,14.30
2018-05-15T01:53:07.201Z,14.30
2018-05-15T01:54:15.757Z,14.30
2018-05-15T01:55:24.487Z,14.30
2018-05-15T01:56:33.206Z,14.30
2018-05-15T01:57:41.852Z,14.30
2018-05-15T01:58:51.294Z,14.20
2018-05-15T02:00:00.131Z,14.20
2018-05-15T02:01:08.843Z,14.20
2018-05-15T02:02:17.515Z,14.20
2018-05-15T02:03:26.171Z,14.20
2018-05-15T02:04:34.835Z,14.10
2018-05-15T02:05:43.447Z,14.10
2018-05-15T02:06:52.782Z,14.10
2018-05-15T02:08:01.498Z,14.10
2018-05-15T02:09:10.247Z,14.10
2018-05-15T02:10:19.723Z,14.00
2018-05-15T02:11:28.527Z,14.00
2018-05-15T02:12:37.154Z,14.00
2018-05-15T02:13:45.719Z,13.90
2018-05-15T02:14:54.382Z,14.00
2018-05-15T02:16:03.906Z,13.90
2018-05-15T02:17:12.641Z,13.90
2018-05-15T02:18:21.248Z,13.90
2018-05-15T02:19:29.865Z,13.80
2018-05-15T02:20:39.404Z,13.90
2018-05-15T02:21:48.053Z,13.90
2018-05-15T02:22:56.720Z,13.90
2018-05-15T02:24:05.233Z,13.90
2018-05-15T02:25:13.894Z,13.90
2018-05-15T02:26:22.487Z,13.80
2018-05-15T02:27:31.115Z,13.80
2018-05-15T02:28:39.883Z,13.70
2018-05-15T02:29:49.371Z,13.70
2018-05-15T02:30:58.061Z,13.70
2018-05-15T02:32:06.670Z,13.70
2018-05-15T02:33:15.320Z,13.70
2018-05-15T02:34:23.859Z,13.60
2018-05-15T02:35:32.497Z,13.70
2018-05-15T02:36:41.940Z,13.70
2018-05-15T02:37:50.736Z,13.60
2018-05-15T02:38:59.424Z,13.70
2018-05-15T02:40:08.161Z,13.70
2018-05-15T02:41:16.721Z,13.60
2018-05-15T02:42:25.607Z,13.60
2018-05-15T02:43:34.393Z,13.60
2018-05-15T02:44:43.110Z,13.50
2018-05-15T02:45:51.692Z,13.50
2018-05-15T02:47:00.452Z,13.50
2018-05-15T02:48:09.068Z,13.40
2018-05-15T02:49:17.751Z,13.50
2018-05-15T02:50:26.347Z,13.40
2018-05-15T02:51:34.947Z,13.30
2018-05-15T02:52:43.685Z,13.30
2018-05-15T02:53:52.399Z,13.20
2018-05-15T02:55:01.222Z,13.30
2018-05-15T02:56:09.894Z,13.30
2018-05-15T02:57:19.333Z,13.40
2018-05-15T02:58:28.225Z,13.40
2018-05-15T02:59:37.792Z,13.40
2018-05-15T03:00:47.084Z,13.30
2018-05-15T03:01:55.756Z,13.30
2018-05-15T03:03:04.364Z,13.30
2018-05-15T03:04:13.164Z,13.20
2018-05-15T03:05:22.559Z,13.20
2018-05-15T03:06:31.284Z,13.10
2018-05-15T03:07:39.958Z,13.20
2018-05-15T03:08:48.671Z,13.10
2018-05-15T03:09:57.291Z,13.10
2018-05-15T03:11:06.148Z,13.10
2018-05-15T03:12:14.699Z,13.10
2018-05-15T03:13:23.306Z,13.00
2018-05-15T03:14:32.078Z,13.00
2018-05-15T03:15:41.658Z,13.10
2018-05-15T03:16:50.297Z,13.00
2018-05-15T03:17:59.068Z,13.10
2018-05-15T03:19:07.884Z,13.10
2018-05-15T03:20:16.622Z,13.00
2018-05-15T03:21:25.258Z,13.10
2018-05-15T03:22:33.939Z,13.20
2018-05-15T03:23:43.365Z,13.40
2018-05-15T03:24:51.951Z,13.30
2018-05-15T03:26:00.721Z,13.30
2018-05-15T03:27:09.454Z,13.40
2018-05-15T03:28:18.130Z,13.40
2018-05-15T03:29:26.747Z,13.40
2018-05-15T03:30:35.367Z,13.30
2018-05-15T03:31:44.217Z,13.30
2018-05-15T03:32:52.777Z,13.20
2018-05-15T03:34:01.497Z,13.10
2018-05-15T03:35:10.189Z,13.00
2018-05-15T03:36:18.840Z,13.00
2018-05-15T03:37:27.578Z,12.90
2018-05-15T03:38:37.071Z,12.90
2018-05-15T03:39:45.622Z,12.90
2018-05-15T03:40:54.339Z,12.80
2018-05-15T03:42:03.683Z,13.00
2018-05-15T03:43:12.364Z,12.90
2018-05-15T03:44:21.097Z,13.00
2018-05-15T03:45:29.818Z,13.00
2018-05-15T03:46:38.537Z,13.00
2018-05-15T03:47:47.246Z,12.90
2018-05-15T03:48:55.806Z,12.90
2018-05-15T03:50:04.445Z,13.00
2018-05-15T03:51:13.252Z,13.00
2018-05-15T03:52:22.015Z,13.10
2018-05-15T03:53:30.604Z,13.10
2018-05-15T03:54:39.220Z,13.20
2018-05-15T03:55:49.506Z,13.30
2018-05-15T03:56:58.150Z,13.30
2018-05-15T03:58:06.831Z,13.30
2018-05-15T03:59:15.386Z,13.30
2018-05-15T04:00:36.243Z,13.20
2018-05-15T04:01:57.761Z,13.20
2018-05-15T04:03:18.440Z,13.30
2018-05-15T04:04:39.176Z,13.20
2018-05-15T04:05:59.938Z,13.20
2018-05-15T04:07:20.740Z,13.30
2018-05-15T04:08:29.440Z,13.40
2018-05-15T04:09:38.068Z,13.30
2018-05-15T04:10:47.656Z,13.30
2018-05-15T04:11:56.423Z,13.20
2018-05-15T04:13:05.012Z,13.20
2018-05-15T04:14:13.616Z,13.20
2018-05-15T04:15:22.205Z,13.20
2018-05-15T04:16:30.923Z,13.20
2018-05-15T04:17:39.669Z,13.10
2018-05-15T04:18:48.375Z,13.10
2018-05-15T04:19:57.054Z,13.20
2018-05-15T04:21:06.420Z,13.20
2018-05-15T04:22:15.042Z,13.20
2018-05-15T04:23:24.675Z,13.20
2018-05-15T04:24:33.235Z,13.20
2018-05-15T04:25:41.830Z,13.30
2018-05-15T04:26:50.759Z,13.30
2018-05-15T04:27:59.499Z,13.30
2018-05-15T04:29:08.106Z,13.30
2018-05-15T04:30:16.792Z,13.30
2018-05-15T04:31:25.502Z,13.40
2018-05-15T04:32:34.149Z,13.40
2018-05-15T04:33:42.851Z,13.30
2018-05-15T04:34:51.561Z,13.30
2018-05-15T04:36:00.242Z,13.30
2018-05-15T04:37:08.952Z,13.40
2018-05-15T04:38:17.654Z,13.30
2018-05-15T04:39:26.422Z,13.30
2018-05-15T04:40:35.107Z,13.30
2018-05-15T04:41:43.691Z,13.30
2018-05-15T04:42:52.419Z,13.30
2018-05-15T04:44:02.012Z,13.30
2018-05-15T04:45:10.534Z,13.30
2018-05-15T04:46:19.174Z,13.40
2018-05-15T04:47:28.742Z,13.60
2018-05-15T04:48:37.383Z,13.60
2018-05-15T04:49:46.003Z,13.60
2018-05-15T04:50:54.570Z,13.70
2018-05-15T04:52:03.255Z,13.70
2018-05-15T04:53:12.210Z,13.80
2018-05-15T04:54:20.982Z,13.80
2018-05-15T04:55:29.706Z,14.00
2018-05-15T04:56:38.332Z,13.90
2018-05-15T04:57:47.031Z,14.00
2018-05-15T04:58:55.693Z,14.00
2018-05-15T05:00:04.405Z,14.00
2018-05-15T05:01:13.266Z,14.00
2018-05-15T05:02:21.795Z,14.10
2018-05-15T05:03:30.522Z,14.10
2018-05-15T05:04:39.130Z,14.10
2018-05-15T05:05:47.754Z,14.00
2018-05-15T05:06:56.368Z,14.10
2018-05-15T05:08:05.019Z,14.20
2018-05-15T05:09:13.724Z,14.20
2018-05-15T05:10:22.299Z,14.20
2018-05-15T05:11:30.934Z,14.20
2018-05-15T05:12:39.630Z,14.30
2018-05-15T05:13:48.328Z,14.40
2018-05-15T05:14:56.929Z,14.40
2018-05-15T05:16:05.667Z,14.50
2018-05-15T05:17:14.396Z,14.60
2018-05-15T05:18:23.149Z,14.70
2018-05-15T05:19:31.671Z,14.70
2018-05-15T05:20:40.408Z,14.70
2018-05-15T05:21:49.810Z,14.80
2018-05-15T05:22:58.379Z,14.80
2018-05-15T05:24:07.179Z,14.80
2018-05-15T05:25:15.905Z,14.80
2018-05-15T05:26:25.484Z,14.80
2018-05-15T05:27:34.050Z,14.80
2018-05-15T05:28:42.680Z,14.80
2018-05-15T05:29:51.439Z,14.80
2018-05-15T05:31:00.192Z,14.90
2018-05-15T05:32:08.775Z,14.80
2018-05-15T05:33:18.195Z,15.00
2018-05-15T05:34:26.803Z,14.90
2018-05-15T05:35:35.508Z,14.90
2018-05-15T05:36:44.214Z,15.00
2018-05-15T05:37:53.012Z,14.80
2018-05-15T05:39:01.611Z,14.80
2018-05-15T05:40:10.275Z,14.80
2018-05-15T05:41:18.799Z,14.80
2018-05-15T05:42:27.418Z,14.80
2018-05-15T05:43:36.002Z,14.80
2018-05-15T05:44:44.521Z,14.80
2018-05-15T05:45:53.214Z,14.80
2018-05-15T05:47:02.009Z,14.70
2018-05-15T05:48:10.955Z,14.80
2018-05-15T05:49:20.052Z,14.90
2018-05-15T05:50:28.827Z,14.90
2018-05-15T05:51:37.444Z,14.80
2018-05-15T05:52:46.772Z,14.80
2018-05-15T05:53:55.360Z,14.80
2018-05-15T05:55:03.999Z,14.80
2018-05-15T05:56:12.840Z,14.90
2018-05-15T05:57:21.633Z,14.80
2018-05-15T05:58:30.295Z,14.70
2018-05-15T05:59:39.058Z,14.70
2018-05-15T06:00:47.646Z,14.70
2018-05-15T06:01:56.264Z,14.70
2018-05-15T06:03:05.060Z,14.80
2018-05-15T06:04:13.672Z,14.70
2018-05-15T06:05:22.363Z,14.80
2018-05-15T06:06:30.902Z,14.80
2018-05-15T06:07:39.519Z,14.80
2018-05-15T06:08:48.216Z,14.80
2018-05-15T06:09:56.770Z,14.80
2018-05-15T06:11:05.348Z,14.90
2018-05-15T06:12:13.920Z,14.90
2018-05-15T06:13:22.569Z,14.80
2018-05-15T06:14:31.225Z,14.80
2018-05-15T06:15:40.665Z,14.80
2018-05-15T06:16:49.514Z,14.80
2018-05-15T06:17:58.214Z,14.90
2018-05-15T06:19:07.046Z,14.90
2018-05-15T06:20:15.832Z,15.00
2018-05-15T06:21:24.558Z,15.00
2018-05-15T06:22:33.135Z,15.10
2018-05-15T06:23:41.793Z,15.10
2018-05-15T06:24:50.507Z,15.10
2018-05-15T06:25:59.050Z,15.10
2018-05-15T06:27:07.709Z,15.20
2018-05-15T06:28:16.515Z,15.40
2018-05-15T06:29:25.114Z,15.40
2018-05-15T06:30:33.863Z,15.50
2018-05-15T06:31:42.427Z,15.50
2018-05-15T06:32:51.024Z,15.60
2018-05-15T06:33:59.640Z,15.70
2018-05-15T06:35:08.335Z,15.70
2018-05-15T06:36:17.711Z,15.70
2018-05-15T06:37:27.227Z,15.60
2018-05-15T06:38:36.064Z,15.60
2018-05-15T06:39:44.653Z,15.70
2018-05-15T06:40:53.255Z,15.60
2018-05-15T06:42:01.822Z,15.70
2018-05-15T06:43:10.444Z,15.50
2018-05-15T06:44:19.271Z,15.40
2018-05-15T06:45:28.126Z,15.50
2018-05-15T06:46:36.793Z,15.70
2018-05-15T06:47:45.408Z,15.70
2018-05-15T06:48:54.007Z,15.70
2018-05-15T06:50:03.450Z,15.80
2018-05-15T06:51:12.175Z,15.80
2018-05-15T06:52:20.729Z,15.80
2018-05-15T06:53:29.365Z,15.80
2018-05-15T06:54:37.856Z,15.90
2018-05-15T06:55:46.511Z,15.90
2018-05-15T06:56:55.084Z,16.00
2018-05-15T06:58:03.702Z,16.00
2018-05-15T06:59:12.330Z,16.00
2018-05-15T07:00:21.899Z,15.90
2018-05-15T07:01:30.559Z,15.90
2018-05-15T07:02:40.145Z,16.10
2018-05-15T07:03:48.923Z,16.00
2018-05-15T07:04:58.334Z,16.20
2018-05-15T07:06:07.012Z,16.20
2018-05-15T07:07:15.735Z,16.10
2018-05-15T07:08:25.190Z,16.10
2018-05-15T07:09:33.872Z,16.10
2018-05-15T07:10:42.498Z,16.00
2018-05-15T07:11:51.096Z,16.10
2018-05-15T07:12:59.692Z,16.20
2018-05-15T07:14:08.506Z,16.30
2018-05-15T07:15:17.744Z,16.30
2018-05-15T07:16:26.657Z,16.30
2018-05-15T07:17:35.356Z,16.20
2018-05-15T07:18:43.975Z,16.20
2018-05-15T07:19:52.591Z,16.10
2018-05-15T07:21:02.127Z,16.10
2018-05-15T07:22:10.709Z,16.10
2018-05-15T07:23:19.474Z,16.00
2018-05-15T07:24:28.251Z,15.90
2018-05-15T07:25:36.890Z,15.90
2018-05-15T07:26:45.597Z,16.00
2018-05-15T07:27:54.135Z,16.10
2018-05-15T07:29:02.806Z,16.20
2018-05-15T07:30:11.496Z,16.30
2018-05-15T07:31:20.171Z,16.30
2018-05-15T07:32:29.659Z,16.40
2018-05-15T07:33:38.485Z,16.40
2018-05-15T07:34:47.066Z,16.40
2018-05-15T07:35:55.759Z,16.30
2018-05-15T07:37:04.564Z,16.30
2018-05-15T07:38:13.203Z,16.20
2018-05-15T07:39:21.800Z,16.30
2018-05-15T07:40:31.299Z,16.20
2018-05-15T07:41:40.033Z,16.20
2018-05-15T07:42:48.760Z,16.20
2018-05-15T07:43:57.516Z,16.30
2018-05-15T07:45:06.193Z,16.30
2018-05-15T07:46:16.454Z,16.20
2018-05-15T07:47:25.107Z,16.20
2018-05-15T07:48:33.738Z,16.30
2018-05-15T07:49:42.394Z,16.20
2018-05-15T07:50:51.048Z,16.20
2018-05-15T07:51:59.608Z,16.20
2018-05-15T07:53:08.230Z,16.20
2018-05-15T07:54:16.892Z,16.10
2018-05-15T07:55:26.313Z,16.20
2018-05-15T07:56:34.879Z,16.20
2018-05-15T07:57:43.508Z,16.30
2018-05-15T07:58:52.968Z,16.50
2018-05-15T08:00:01.688Z,16.50
2018-05-15T08:01:10.261Z,16.50
2018-05-15T08:02:18.963Z,16.40
2018-05-15T08:03:27.582Z,16.50
2018-05-15T08:04:36.367Z,16.50
2018-05-15T08:05:45.036Z,16.50
2018-05-15T08:06:53.761Z,16.60
2018-05-15T08:08:02.396Z,16.70
2018-05-15T08:09:11.122Z,16.70
2018-05-15T08:10:19.718Z,16.60
2018-05-15T08:11:28.306Z,16.60
2018-05-15T08:12:36.993Z,16.70
2018-05-15T08:13:45.744Z,16.70
2018-05-15T08:14:54.451Z,16.60
2018-05-15T08:16:03.004Z,16.50
2018-05-15T08:17:11.663Z,16.50
2018-05-15T08:18:20.445Z,16.30
2018-05-15T08:19:29.092Z,16.30
2018-05-15T08:20:37.703Z,16.50
2018-05-15T08:21:46.416Z,16.70
2018-05-15T08:22:55.929Z,16.90
2018-05-15T08:24:04.508Z,16.90
2018-05-15T08:25:13.260Z,16.90
2018-05-15T08:26:21.962Z,17.00
2018-05-15T08:27:31.403Z,17.10
2018-05-15T08:28:40.131Z,17.10
2018-05-15T08:29:48.785Z,17.10
2018-05-15T08:30:57.673Z,17.20
2018-05-15T08:32:06.342Z,17.20
2018-05-15T08:33:15.074Z,17.30
2018-05-15T08:34:23.846Z,17.30
2018-05-15T08:35:32.416Z,17.40
2018-05-15T08:36:40.944Z,17.40
2018-05-15T08:37:49.572Z,17.50
2018-05-15T08:38:58.159Z,17.40
2018-05-15T08:40:06.756Z,17.50
2018-05-15T08:41:16.268Z,17.60
2018-05-15T08:42:25.023Z,17.60
2018-05-15T08:43:33.766Z,17.60
2018-05-15T08:44:42.451Z,17.50
2018-05-15T08:45:51.060Z,17.50
2018-05-15T08:46:59.687Z,17.50
2018-05-15T08:48:08.519Z,17.50
2018-05-15T08:49:17.134Z,17.60
2018-05-15T08:50:25.650Z,17.50
2018-05-15T08:51:34.372Z,17.40
2018-05-15T08:52:43.014Z,17.30
2018-05-15T08:53:51.677Z,17.40
2018-05-15T08:55:01.050Z,17.30
2018-05-15T08:56:09.797Z,17.30
2018-05-15T08:57:19.445Z,17.40
2018-05-15T08:58:28.139Z,17.40
2018-05-15T08:59:36.814Z,17.40
2018-05-15T09:00:45.665Z,17.30
2018-05-15T09:01:54.318Z,17.40
2018-05-15T09:03:02.996Z,17.50
2018-05-15T09:04:11.673Z,17.60
2018-05-15T09:05:20.295Z,17.70
2018-05-15T09:06:29.080Z,17.70
2018-05-15T09:07:37.758Z,17.60
2018-05-15T09:08:46.466Z,17.50
2018-05-15T09:09:55.187Z,17.60
2018-05-15T09:11:03.786Z,17.70
2018-05-15T09:12:12.397Z,17.70
2018-05-15T09:13:21.131Z,17.60
2018-05-15T09:14:29.761Z,17.70
2018-05-15T09:15:38.458Z,17.70
2018-05-15T09:16:47.285Z,17.70
2018-05-15T09:17:56.814Z,17.70
2018-05-15T09:19:05.516Z,17.60
2018-05-15T09:20:14.215Z,17.60
2018-05-15T09:21:23.050Z,17.60
2018-05-15T09:22:31.819Z,17.50
2018-05-15T09:23:40.601Z,17.40
2018-05-15T09:24:49.233Z,17.40
2018-05-15T09:25:58.060Z,17.40
2018-05-15T09:27:06.786Z,17.30
2018-05-15T09:28:16.313Z,17.30
2018-05-15T09:29:25.108Z,17.20
2018-05-15T09:30:33.875Z,17.30
2018-05-15T09:31:42.487Z,17.30
2018-05-15T09:32:51.082Z,17.30
2018-05-15T09:33:59.679Z,17.40
2018-05-15T09:35:08.341Z,17.40
2018-05-15T09:36:16.990Z,17.40
2018-05-15T09:37:25.600Z,17.40
2018-05-15T09:38:34.377Z,17.50
2018-05-15T09:39:43.018Z,17.60
2018-05-15T09:40:51.733Z,17.60
2018-05-15T09:42:00.433Z,17.60
2018-05-15T09:43:09.050Z,17.60
2018-05-15T09:44:17.798Z,17.60
2018-05-15T09:45:26.387Z,17.60
2018-05-15T09:46:35.801Z,17.70
2018-05-15T09:47:44.623Z,17.70
2018-05-15T09:48:53.234Z,17.80
2018-05-15T09:50:01.932Z,17.90
2018-05-15T09:51:10.680Z,17.80
2018-05-15T09:52:19.501Z,17.70
2018-05-15T09:53:28.029Z,17.70
2018-05-15T09:54:36.614Z,17.60
2018-05-15T09:55:45.187Z,17.70
2018-05-15T09:56:54.720Z,17.90
2018-05-15T09:58:03.432Z,17.80
2018-05-15T09:59:12.128Z,18.00
2018-05-15T10:00:26.559Z,17.90
2018-05-15T10:01:35.246Z,17.80
2018-05-15T10:02:44.575Z,17.80
2018-05-15T10:03:53.977Z,17.70
2018-05-15T10:05:02.705Z,17.70
2018-05-15T10:06:11.361Z,17.70
2018-05-15T10:07:20.183Z,17.60
2018-05-15T10:08:29.718Z,17.40
2018-05-15T10:09:38.381Z,17.40
2018-05-15T10:10:47.078Z,17.30
2018-05-15T10:11:55.770Z,17.20
2018-05-15T10:13:04.343Z,17.10
2018-05-15T10:14:13.077Z,16.90
2018-05-15T10:15:21.755Z,16.70
2018-05-15T10:16:31.322Z,16.40
2018-05-15T10:17:39.904Z,16.30
2018-05-15T10:18:48.774Z,16.10
2018-05-15T10:19:57.583Z,15.90
2018-05-15T10:21:06.243Z,15.80
2018-05-15T10:22:14.998Z,15.60
2018-05-15T10:23:23.709Z,15.50
2018-05-15T10:24:32.318Z,15.30
2018-05-15T10:25:41.045Z,15.00
2018-05-15T10:26:49.840Z,14.90
2018-05-15T10:27:58.394Z,14.60
2018-05-15T10:29:07.064Z,14.50
2018-05-15T10:30:15.614Z,14.40
2018-05-15T10:31:25.007Z,13.90
2018-05-15T10:32:33.823Z,13.90
2018-05-15T10:33:44.135Z,13.50
2018-05-15T10:34:52.780Z,13.50
2018-05-15T10:36:01.391Z,13.40
2018-05-15T10:37:10.098Z,13.30
2018-05-15T10:38:18.765Z,13.20
2018-05-15T10:39:27.471Z,13.00
2018-05-15T10:40:36.231Z,12.90
2018-05-15T10:41:44.850Z,12.70
2018-05-15T10:42:53.624Z,12.60
2018-05-15T10:44:02.376Z,12.50
2018-05-15T10:45:11.075Z,12.60
2018-05-15T10:46:19.753Z,12.70
2018-05-15T10:47:29.295Z,12.70
2018-05-15T10:48:38.212Z,12.70
2018-05-15T10:49:46.942Z,12.70
2018-05-15T10:50:55.564Z,12.70
2018-05-15T10:52:04.293Z,12.80
2018-05-15T10:53:13.871Z,12.90
2018-05-15T10:54:22.487Z,12.90
2018-05-15T10:55:31.099Z,12.90
2018-05-15T10:56:39.762Z,12.90
2018-05-15T10:57:48.316Z,13.00
2018-05-15T10:58:57.037Z,13.00
2018-05-15T11:00:05.692Z,13.00
2018-05-15T11:01:14.471Z,13.10
2018-05-15T11:02:23.211Z,13.10
2018-05-15T11:03:31.835Z,13.30
2018-05-15T11:04:40.603Z,13.30
2018-05-15T11:05:49.197Z,13.40
2018-05-15T11:06:57.812Z,13.50
2018-05-15T11:08:06.625Z,13.50
2018-05-15T11:09:15.303Z,13.60
2018-05-15T11:10:24.016Z,13.70
2018-05-15T11:11:32.819Z,13.80
2018-05-15T11:12:41.440Z,13.80
2018-05-15T11:13:50.092Z,13.90
2018-05-15T11:14:58.803Z,14.00
2018-05-15T11:16:08.327Z,14.20
2018-05-15T11:17:17.044Z,14.20
2018-05-15T11:18:47.456Z,14.30
2018-05-15T11:20:08.138Z,14.40
2018-05-15T11:21:28.806Z,14.40
2018-05-15T11:22:49.266Z,14.50
2018-05-15T11:25:32.652Z,14.60
2018-05-15T11:26:41.252Z,14.60
2018-05-15T11:27:49.943Z,14.70
2018-05-15T11:28:58.536Z,14.70
2018-05-15T11:30:07.172Z,14.70
2018-05-15T11:31:15.902Z,14.80
2018-05-15T11:32:24.634Z,14.90
2018-05-15T11:33:33.449Z,15.00
2018-05-15T11:34:42.143Z,15.00
2018-05-15T11:35:50.931Z,15.00
2018-05-15T11:36:59.560Z,15.00
2018-05-15T11:38:08.989Z,14.90
2018-05-15T11:39:17.662Z,14.90
2018-05-15T11:40:26.294Z,14.90
2018-05-15T11:41:35.083Z,14.90
2018-05-15T11:42:43.739Z,14.80
2018-05-15T11:43:52.538Z,14.80
2018-05-15T11:45:02.780Z,15.00
2018-05-15T11:46:11.327Z,15.00
2018-05-15T11:47:20.299Z,15.00
2018-05-15T11:48:29.619Z,15.10
2018-05-15T11:49:39.016Z,15.10
2018-05-15T11:50:47.616Z,15.10
2018-05-15T11:51:56.478Z,15.20
2018-05-15T11:53:05.070Z,15.30
2018-05-15T11:54:13.815Z,15.30
2018-05-15T11:55:22.625Z,15.30
2018-05-15T11:56:31.316Z,15.30
2018-05-15T11:57:39.991Z,15.30
2018-05-15T11:58:49.561Z,15.40
2018-05-15T11:59:58.472Z,15.40
2018-05-15T12:01:07.028Z,15.50
2018-05-15T12:02:15.613Z,15.50
2018-05-15T12:03:24.228Z,15.60
2018-05-15T12:04:32.838Z,15.60
2018-05-15T12:05:41.447Z,15.60
2018-05-15T12:06:50.137Z,15.60
2018-05-15T12:07:58.920Z,15.80
2018-05-15T12:09:07.705Z,16.00
2018-05-15T12:10:16.360Z,16.00
2018-05-15T12:11:25.126Z,15.90
2018-05-15T12:12:33.903Z,16.00
2018-05-15T12:13:42.719Z,16.00
2018-05-15T12:14:51.331Z,16.00
2018-05-15T12:15:59.919Z,16.00
2018-05-15T12:17:08.671Z,15.90
2018-05-15T12:18:17.468Z,15.90
2018-05-15T12:19:26.066Z,16.00
2018-05-15T12:20:34.767Z,16.20
2018-05-15T12:21:43.291Z,16.30
2018-05-15T12:22:51.867Z,16.40
2018-05-15T12:24:01.434Z,16.60
2018-05-15T12:25:10.026Z,16.60
2018-05-15T12:26:18.634Z,16.60
2018-05-15T12:27:27.364Z,16.60
2018-05-15T12:28:36.022Z,16.60
2018-05-15T12:29:44.647Z,16.60
2018-05-15T12:30:53.321Z,16.40
2018-05-15T12:32:01.973Z,16.20
2018-05-15T12:33:10.647Z,16.00
2018-05-15T12:34:19.304Z,15.70
2018-05-15T12:35:28.164Z,15.50
2018-05-15T12:36:36.803Z,15.20
2018-05-15T12:37:45.567Z,15.10
2018-05-15T12:38:55.007Z,14.80
2018-05-15T12:40:03.779Z,14.70
2018-05-15T12:41:12.526Z,14.60
2018-05-15T12:42:21.216Z,14.50
2018-05-15T12:43:29.950Z,14.40
2018-05-15T12:44:38.706Z,14.40
2018-05-15T12:45:47.357Z,14.20
2018-05-15T12:46:56.052Z,14.10
2018-05-15T12:48:04.820Z,14.20
2018-05-15T12:49:14.359Z,14.20
2018-05-15T12:50:23.326Z,14.20
2018-05-15T12:51:32.154Z,14.10
2018-05-15T12:52:41.659Z,13.90
2018-05-15T12:53:50.487Z,13.80
2018-05-15T12:54:59.888Z,13.60
2018-05-15T12:56:08.585Z,13.60
2018-05-15T12:57:17.203Z,13.60
2018-05-15T12:58:25.813Z,13.50
2018-05-15T12:59:34.563Z,13.50
2018-05-15T13:00:43.248Z,13.50
2018-05-15T13:01:52.231Z,13.60
2018-05-15T13:03:00.705Z,13.50
2018-05-15T13:04:09.405Z,13.60
2018-05-15T13:05:17.993Z,13.60
2018-05-15T13:06:26.663Z,13.60
2018-05-15T13:07:35.323Z,13.60
2018-05-15T13:08:43.938Z,13.60
2018-05-15T13:09:52.644Z,13.60
2018-05-15T13:11:01.308Z,13.70
2018-05-15T13:12:11.566Z,13.70
2018-05-15T13:13:21.025Z,13.70
2018-05-15T13:14:29.860Z,13.70
2018-05-15T13:15:38.455Z,13.80
2018-05-15T13:16:47.029Z,13.80
2018-05-15T13:17:55.664Z,13.90
2018-05-15T13:19:04.233Z,13.90
2018-05-15T13:20:12.881Z,13.90
2018-05-15T13:21:21.558Z,13.90
2018-05-15T13:22:30.195Z,13.90
2018-05-15T13:23:38.886Z,14.00
2018-05-15T13:24:47.684Z,14.00
2018-05-15T13:25:56.532Z,14.00
2018-05-15T13:27:05.134Z,14.00
2018-05-15T13:28:14.480Z,14.20
2018-05-15T13:29:23.979Z,14.20
2018-05-15T13:30:32.621Z,14.20
2018-05-15T13:31:41.212Z,14.20
2018-05-15T13:32:50.033Z,14.20
2018-05-15T13:33:58.635Z,14.40
2018-05-15T13:35:07.360Z,14.40
2018-05-15T13:36:16.939Z,14.50
2018-05-15T13:37:25.705Z,14.50
2018-05-15T13:38:34.419Z,14.50
2018-05-15T13:39:42.965Z,14.60
2018-05-15T13:40:51.732Z,14.60
2018-05-15T13:42:00.308Z,14.70
2018-05-15T13:43:09.065Z,14.70
2018-05-15T13:44:17.763Z,14.70
2018-05-15T13:45:26.443Z,14.80
2018-05-15T13:46:35.083Z,14.80
2018-05-15T13:47:43.799Z,14.90
2018-05-15T13:48:52.303Z,15.00
2018-05-15T13:50:00.966Z,15.10
2018-05-15T13:51:09.712Z,15.20
2018-05-15T13:52:19.256Z,15.30
2018-05-15T13:53:27.891Z,15.30
2018-05-15T13:54:36.574Z,15.40
2018-05-15T13:55:45.247Z,15.50
2018-05-15T13:56:54.829Z,15.70
2018-05-15T13:58:03.611Z,15.70
2018-05-15T13:59:12.294Z,15.80
2018-05-15T14:00:21.024Z,15.80
2018-05-15T14:01:30.327Z,16.00
2018-05-15T14:02:38.971Z,16.00
2018-05-15T14:03:47.653Z,16.00
2018-05-15T14:04:56.383Z,16.10
2018-05-15T14:06:05.140Z,16.20
2018-05-15T14:07:13.801Z,16.20
2018-05-15T14:08:22.407Z,16.20
2018-05-15T14:09:31.118Z,16.30
2018-05-15T14:10:39.771Z,16.40
2018-05-15T14:11:48.560Z,16.60
2018-05-15T14:12:57.091Z,16.70
2018-05-15T14:14:05.843Z,16.90
2018-05-15T14:15:14.600Z,17.10
2018-05-15T14:16:23.308Z,17.20
2018-05-15T14:17:32.132Z,17.40
2018-05-15T14:18:40.831Z,17.70
2018-05-15T14:19:49.487Z,17.80
2018-05-15T14:20:58.179Z,17.90
2018-05-15T14:22:06.978Z,18.00
2018-05-15T14:23:16.402Z,18.50
2018-05-15T14:24:25.066Z,18.40
2018-05-15T14:25:33.730Z,18.40
2018-05-15T14:26:42.527Z,18.60
2018-05-15T14:27:51.151Z,18.60
2018-05-15T14:29:00.687Z,18.80
2018-05-15T14:30:09.498Z,18.80
2018-05-15T14:31:18.244Z,18.80
2018-05-15T14:32:27.711Z,19.00
2018-05-15T14:33:36.429Z,19.00
2018-05-15T14:34:45.149Z,19.00
2018-05-15T14:35:53.824Z,18.90
2018-05-15T14:37:02.590Z,18.90
2018-05-15T14:38:11.282Z,18.90
2018-05-15T14:39:19.978Z,19.00
2018-05-15T14:40:28.572Z,19.10
2018-05-15T14:41:49.151Z,19.10
2018-05-15T14:43:10.591Z,19.50
2018-05-15T14:44:19.198Z,19.50
2018-05-15T14:45:28.567Z,20.00
2018-05-15T14:46:37.200Z,20.00
2018-05-15T14:47:45.820Z,19.90
2018-05-15T14:48:54.453Z,20.10
2018-05-15T14:50:03.159Z,20.50